Time;durP1;ratioP1;P1;durP2;ratioP2;P2;SDS_P1;SDS_P2;PMS_P1;PMS_P2;Temp;Humidity;BMP_temperature;BMP_pressure;BME280_temperature;BME280_humidity;BME280_pressure;Samples;Min_cycle;Max_cycle;Signal;HPM_P1;HPM_P2
2022/12/06 00:00:24;;;;;;;3.20;1.48;;;;;;;;;;5092981;28;20131;-74
2022/12/06 00:02:49;;;;;;;2.33;1.25;;;;;;;;;;5093213;28;20105;-73
2022/12/06 00:05:15;;;;;;;4.25;1.17;;;;;;;;;;5092798;28;20012;-73
2022/12/06 00:07:40;;;;;;;6.00;1.67;;;;;;;;;;5109009;28;20476;-73
2022/12/06 00:10:06;;;;;;;2.28;1.23;;;;;;;;;;5108886;28;20548;-72
2022/12/06 00:12:32;;;;;;;3.88;1.60;;;;;;;;;;5108783;28;20042;-73
2022/12/06 00:14:57;;;;;;;1.95;1.50;;;;;;;;;;5108604;28;20040;-74
2022/12/06 00:17:23;;;;;;;2.60;1.25;;;;;;;;;;5108689;28;20020;-73
2022/12/06 00:19:48;;;;;;;6.10;1.60;;;;;;;;;;5092836;28;20016;-71
2022/12/06 00:22:14;;;;;;;2.88;1.48;;;;;;;;;;5093392;28;20074;-73
2022/12/06 00:24:39;;;;;;;4.75;1.80;;;;;;;;;;5092791;28;20016;-74
2022/12/06 00:27:05;;;;;;;5.63;1.70;;;;;;;;;;5092480;28;20028;-73
2022/12/06 00:29:31;;;;;;;2.25;1.05;;;;;;;;;;5092597;28;20154;-71
2022/12/06 00:31:56;;;;;;;4.70;1.15;;;;;;;;;;5092558;28;20028;-74
2022/12/06 00:34:22;;;;;;;1.50;0.98;;;;;;;;;;5091367;28;20172;-71
2022/12/06 00:36:47;;;;;;;2.80;1.40;;;;;;;;;;5108301;28;20124;-71
2022/12/06 00:39:14;;;;;;;2.10;0.80;;;;;;;;;;5092097;28;20013;-72
2022/12/06 00:41:39;;;;;;;3.78;1.10;;;;;;;;;;5107911;28;20043;-72
2022/12/06 00:44:05;;;;;;;2.50;1.50;;;;;;;;;;5092220;28;20373;-72
2022/12/06 00:46:31;;;;;;;1.77;1.20;;;;;;;;;;5092249;28;20123;-73
2022/12/06 00:48:57;;;;;;;2.22;1.30;;;;;;;;;;5107461;28;20019;-70
2022/12/06 00:51:24;;;;;;;2.00;1.30;;;;;;;;;;5092476;28;20024;-73
2022/12/06 00:53:49;;;;;;;3.40;1.17;;;;;;;;;;5107968;28;20183;-71
2022/12/06 00:56:15;;;;;;;3.95;1.20;;;;;;;;;;5092941;28;20032;-71
2022/12/06 00:58:41;;;;;;;2.72;1.27;;;;;;;;;;5092343;28;20098;-73
2022/12/06 01:01:10;;;;;;;2.85;1.70;;;;;;;;;;5092064;28;20044;-74
2022/12/06 01:03:35;;;;;;;4.07;1.70;;;;;;;;;;5091931;28;20043;-72
2022/12/06 01:06:02;;;;;;;3.72;1.60;;;;;;;;;;5092317;28;20460;-72
2022/12/06 01:08:28;;;;;;;10.00;2.05;;;;;;;;;;5092513;28;20016;-71
2022/12/06 01:10:53;;;;;;;2.55;1.77;;;;;;;;;;5091941;28;20038;-71
2022/12/06 01:13:19;;;;;;;6.30;2.05;;;;;;;;;;5107660;28;20157;-71
2022/12/06 01:15:44;;;;;;;4.38;2.05;;;;;;;;;;5092176;28;20024;-72
2022/12/06 01:18:10;;;;;;;4.17;2.30;;;;;;;;;;5107633;28;20403;-73
2022/12/06 01:20:35;;;;;;;7.43;2.30;;;;;;;;;;5092869;28;20012;-72
2022/12/06 01:23:00;;;;;;;4.20;1.77;;;;;;;;;;5091829;28;20073;-72
2022/12/06 01:25:26;;;;;;;3.40;1.90;;;;;;;;;;5107879;28;20464;-73
2022/12/06 01:27:51;;;;;;;4.33;2.20;;;;;;;;;;5092411;28;20104;-73
2022/12/06 01:30:17;;;;;;;3.40;2.00;;;;;;;;;;5091796;28;20032;-74
2022/12/06 01:32:42;;;;;;;6.30;2.43;;;;;;;;;;5091790;28;20032;-69
2022/12/06 01:35:08;;;;;;;4.80;2.37;;;;;;;;;;5107681;28;20055;-73
2022/12/06 01:37:33;;;;;;;7.22;2.58;;;;;;;;;;5092027;28;20039;-73
2022/12/06 01:39:58;;;;;;;5.10;2.60;;;;;;;;;;5092453;28;20069;-71
2022/12/06 01:42:24;;;;;;;4.30;2.73;;;;;;;;;;5092029;28;20376;-74
2022/12/06 01:44:50;;;;;;;5.57;2.77;;;;;;;;;;5093690;28;20021;-73
2022/12/06 01:47:18;;;;;;;5.07;2.70;;;;;;;;;;5095840;28;20012;-73
2022/12/06 01:49:59;;;;;;;3.83;2.00;;;;;;;;;;5096308;28;20062;-73
2022/12/06 01:52:28;;;;;;;4.73;2.80;;;;;;;;;;5111734;28;20436;-73
2022/12/06 01:54:54;;;;;;;3.00;1.90;;;;;;;;;;5095721;28;20012;-73
2022/12/06 01:57:20;;;;;;;4.33;2.10;;;;;;;;;;5111203;28;20431;-72
2022/12/06 01:59:46;;;;;;;3.57;1.93;;;;;;;;;;5110994;28;20024;-71
2022/12/06 02:02:12;;;;;;;3.37;1.70;;;;;;;;;;5096195;28;20473;-68
2022/12/06 02:04:37;;;;;;;3.33;1.83;;;;;;;;;;5095713;28;20028;-72
2022/12/06 02:07:03;;;;;;;4.40;2.30;;;;;;;;;;5111079;28;20081;-73
2022/12/06 02:09:29;;;;;;;3.23;1.87;;;;;;;;;;5111318;28;20067;-73
2022/12/06 02:11:54;;;;;;;4.87;2.30;;;;;;;;;;5095557;28;20107;-73
2022/12/06 02:14:22;;;;;;;5.23;2.47;;;;;;;;;;5095326;28;20128;-73
2022/12/06 02:16:47;;;;;;;4.63;2.30;;;;;;;;;;5095619;28;20024;-71
2022/12/06 02:19:42;;;;;;;3.77;2.30;;;;;;;;;;5094995;28;20099;-73
2022/12/06 02:22:13;;;;;;;3.50;2.30;;;;;;;;;;5090197;28;20032;-73
2022/12/06 02:25:08;;;;;;;5.37;2.97;;;;;;;;;;5095005;28;20035;-71
2022/12/06 02:27:39;;;;;;;5.77;2.60;;;;;;;;;;5089970;28;20039;-70
2022/12/06 02:30:08;;;;;;;5.73;2.97;;;;;;;;;;5094997;28;20020;-72
2022/12/06 02:32:50;;;;;;;5.57;3.43;;;;;;;;;;5094897;28;20570;-71
2022/12/06 02:35:21;;;;;;;4.90;2.47;;;;;;;;;;5094506;28;20069;-71
2022/12/06 02:37:51;;;;;;;5.13;2.73;;;;;;;;;;5095103;28;20065;-72
2022/12/06 02:40:19;;;;;;;5.90;3.00;;;;;;;;;;5094767;28;20012;-71
2022/12/06 02:43:23;;;;;;;5.63;3.27;;;;;;;;;;5110599;28;20016;-71
2022/12/06 02:45:51;;;;;;;6.17;3.13;;;;;;;;;;5072177;28;20507;-72
2022/12/06 02:48:17;;;;;;;4.93;2.73;;;;;;;;;;5055335;28;20016;-71
2022/12/06 02:50:45;;;;;;;6.73;3.30;;;;;;;;;;5082923;28;20085;-73
2022/12/06 02:53:12;;;;;;;6.03;3.13;;;;;;;;;;5094567;28;20035;-72
2022/12/06 02:55:38;;;;;;;7.70;3.90;;;;;;;;;;5097824;28;20492;-72
2022/12/06 02:58:04;;;;;;;6.40;3.77;;;;;;;;;;5110473;28;20016;-72
2022/12/06 03:00:35;;;;;;;6.23;3.87;;;;;;;;;;5094650;28;20040;-71
2022/12/06 03:03:22;;;;;;;6.47;3.17;;;;;;;;;;5094271;28;20051;-72
2022/12/06 03:06:02;;;;;;;4.67;3.00;;;;;;;;;;5094496;28;20027;-72
2022/12/06 03:08:37;;;;;;;7.57;4.07;;;;;;;;;;5094469;28;20058;-69
2022/12/06 03:11:02;;;;;;;6.88;3.75;;;;;;;;;;5094222;28;20481;-71
2022/12/06 03:13:30;;;;;;;7.17;4.03;;;;;;;;;;5094646;28;20074;-72
2022/12/06 03:16:04;;;;;;;8.57;4.20;;;;;;;;;;5094838;28;20031;-74
2022/12/06 03:18:32;;;;;;;9.23;4.03;;;;;;;;;;5110484;28;20452;-73
2022/12/06 03:21:07;;;;;;;5.83;3.33;;;;;;;;;;5094618;28;20069;-70
2022/12/06 03:23:35;;;;;;;8.15;3.90;;;;;;;;;;5110041;28;20539;-73
2022/12/06 03:26:02;;;;;;;9.67;4.70;;;;;;;;;;5109931;28;20016;-73
2022/12/06 03:28:28;;;;;;;7.00;3.93;;;;;;;;;;5094227;28;20016;-74
2022/12/06 03:30:58;;;;;;;6.07;4.00;;;;;;;;;;5094348;28;20020;-73
2022/12/06 03:33:25;;;;;;;9.60;5.27;;;;;;;;;;5109516;28;20024;-72
2022/12/06 03:35:52;;;;;;;6.60;3.83;;;;;;;;;;5093967;28;20031;-73
2022/12/06 03:38:20;;;;;;;8.97;4.27;;;;;;;;;;5093963;28;20027;-73
2022/12/06 03:40:48;;;;;;;8.30;4.63;;;;;;;;;;5093961;28;20043;-72
2022/12/06 03:43:14;;;;;;;7.63;4.13;;;;;;;;;;5094061;28;20028;-74
2022/12/06 03:45:41;;;;;;;10.37;4.67;;;;;;;;;;5094046;28;20065;-74
2022/12/06 03:48:13;;;;;;;7.80;4.50;;;;;;;;;;5093725;28;20012;-71
2022/12/06 03:50:40;;;;;;;10.30;4.50;;;;;;;;;;5093713;28;20046;-74
2022/12/06 03:53:06;;;;;;;9.77;4.07;;;;;;;;;;5109146;28;20039;-72
2022/12/06 03:55:31;;;;;;;7.13;4.27;;;;;;;;;;5093304;28;20430;-72
2022/12/06 03:57:57;;;;;;;10.90;4.80;;;;;;;;;;5093454;28;20038;-72
2022/12/06 04:00:22;;;;;;;6.70;3.97;;;;;;;;;;5108889;28;20083;-73
2022/12/06 04:02:47;;;;;;;6.57;3.80;;;;;;;;;;5108843;28;20016;-69
2022/12/06 04:05:13;;;;;;;7.63;4.43;;;;;;;;;;5093163;28;20028;-72
2022/12/06 04:07:38;;;;;;;9.07;3.90;;;;;;;;;;5093149;28;20035;-73
2022/12/06 04:10:05;;;;;;;7.03;3.97;;;;;;;;;;5093404;28;20012;-73
2022/12/06 04:15:15;;;;;;;12.73;4.82;;;;;;;;;;5093416;28;20031;-74
2022/12/06 04:20:25;;;;;;;10.63;5.30;;;;;;;;;;5093379;28;20027;-74
2022/12/06 04:23:03;;;;;;;8.73;5.40;;;;;;;;;;5108743;28;20536;-72
2022/12/06 04:25:32;;;;;;;10.33;4.93;;;;;;;;;;5108633;28;20046;-74
2022/12/06 04:38:53;;;;;;;8.03;4.47;;;;;;;;;;5093021;28;20027;-69
2022/12/06 04:44:03;;;;;;;9.50;4.90;;;;;;;;;;5092629;28;20380;-73
2022/12/06 04:46:29;;;;;;;8.40;4.20;;;;;;;;;;5092735;28;20028;-72
2022/12/06 04:48:54;;;;;;;9.63;4.63;;;;;;;;;;5092816;28;20066;-74
2022/12/06 04:51:20;;;;;;;7.57;4.10;;;;;;;;;;5108036;28;20028;-73
2022/12/06 04:53:46;;;;;;;9.17;4.50;;;;;;;;;;5091885;28;20134;-74
2022/12/06 04:56:11;;;;;;;10.27;4.50;;;;;;;;;;5092274;28;20012;-71
2022/12/06 04:58:36;;;;;;;8.73;4.23;;;;;;;;;;5092794;28;20064;-73
2022/12/06 05:01:02;;;;;;;8.80;4.93;;;;;;;;;;5092038;28;20429;-72
2022/12/06 05:03:27;;;;;;;7.60;4.30;;;;;;;;;;5108223;28;20483;-74
2022/12/06 05:05:53;;;;;;;6.60;3.80;;;;;;;;;;5092501;28;20120;-76
2022/12/06 05:08:19;;;;;;;8.33;4.33;;;;;;;;;;5092391;28;20024;-74
2022/12/06 05:10:49;;;;;;;11.67;4.80;;;;;;;;;;5092481;28;20087;-75
2022/12/06 05:13:15;;;;;;;9.47;4.50;;;;;;;;;;5091946;28;20111;-74
2022/12/06 05:15:57;;;;;;;8.27;4.03;;;;;;;;;;5091903;28;20489;-75
2022/12/06 05:18:23;;;;;;;6.93;3.83;;;;;;;;;;5092390;28;20055;-75
2022/12/06 05:20:49;;;;;;;7.47;3.90;;;;;;;;;;5098385;28;20051;-73
2022/12/06 05:23:15;;;;;;;11.10;4.83;;;;;;;;;;5098904;28;20012;-73
2022/12/06 05:25:41;;;;;;;14.20;3.97;;;;;;;;;;5099222;28;20077;-75
2022/12/06 05:28:10;;;;;;;10.40;3.93;;;;;;;;;;5114758;28;20016;-75
2022/12/06 05:30:35;;;;;;;5.80;3.50;;;;;;;;;;5114655;28;20020;-74
2022/12/06 05:33:00;;;;;;;7.80;4.37;;;;;;;;;;5098561;28;20039;-76
2022/12/06 05:35:26;;;;;;;6.83;3.77;;;;;;;;;;5114749;28;20020;-75
2022/12/06 05:37:51;;;;;;;10.57;4.57;;;;;;;;;;5114727;28;20414;-76
2022/12/06 05:40:17;;;;;;;10.57;5.07;;;;;;;;;;5114851;28;20069;-74
2022/12/06 05:42:42;;;;;;;8.27;4.57;;;;;;;;;;5098846;28;20073;-71
2022/12/06 05:45:08;;;;;;;6.80;3.93;;;;;;;;;;5114897;28;20499;-77
2022/12/06 05:47:34;;;;;;;8.37;4.27;;;;;;;;;;5115884;28;20020;-74
2022/12/06 05:49:59;;;;;;;9.00;4.30;;;;;;;;;;5114849;28;20016;-75
2022/12/06 05:52:25;;;;;;;8.77;4.37;;;;;;;;;;5098994;28;20384;-76
2022/12/06 05:54:50;;;;;;;10.07;4.30;;;;;;;;;;5114261;28;20049;-75
2022/12/06 05:57:15;;;;;;;10.87;3.80;;;;;;;;;;5099033;28;20031;-77
2022/12/06 05:59:41;;;;;;;8.80;4.33;;;;;;;;;;5098698;28;20034;-76
2022/12/06 06:02:06;;;;;;;9.00;5.10;;;;;;;;;;5098875;28;20036;-76
2022/12/06 06:04:32;;;;;;;8.03;4.30;;;;;;;;;;5113978;28;20432;-76
2022/12/06 06:06:57;;;;;;;8.57;4.57;;;;;;;;;;5114157;28;20020;-77
2022/12/06 06:09:23;;;;;;;10.40;4.47;;;;;;;;;;5114679;28;20146;-77
2022/12/06 06:11:50;;;;;;;10.17;4.73;;;;;;;;;;5098240;28;20087;-77
2022/12/06 06:14:15;;;;;;;15.70;6.33;;;;;;;;;;5098438;28;20429;-74
2022/12/06 06:16:41;;;;;;;9.37;4.47;;;;;;;;;;5113562;28;20055;-76
2022/12/06 06:19:06;;;;;;;9.73;4.40;;;;;;;;;;5097924;28;20065;-75
2022/12/06 06:21:32;;;;;;;9.40;3.80;;;;;;;;;;5114069;28;20111;-76
2022/12/06 06:23:59;;;;;;;6.50;3.93;;;;;;;;;;5097261;28;20016;-79
2022/12/06 06:26:24;;;;;;;9.27;4.10;;;;;;;;;;5097981;28;20016;-76
2022/12/06 06:28:50;;;;;;;8.83;3.93;;;;;;;;;;5098880;28;20103;-75
2022/12/06 06:31:15;;;;;;;7.30;3.93;;;;;;;;;;5094980;28;20024;-77
2022/12/06 06:33:40;;;;;;;9.63;3.80;;;;;;;;;;5110629;28;20028;-75
2022/12/06 06:36:06;;;;;;;7.07;3.60;;;;;;;;;;5095634;28;20486;-77
2022/12/06 06:38:32;;;;;;;10.87;4.07;;;;;;;;;;5094902;28;20008;-78
2022/12/06 06:41:00;;;;;;;13.97;4.10;;;;;;;;;;5110814;28;20012;-77
2022/12/06 06:43:25;;;;;;;11.63;4.67;;;;;;;;;;5095564;28;20489;-74
2022/12/06 06:45:57;;;;;;;6.87;3.90;;;;;;;;;;5095357;28;20165;-77
2022/12/06 06:48:23;;;;;;;8.43;3.97;;;;;;;;;;5094645;28;20473;-77
2022/12/06 06:50:49;;;;;;;9.13;4.10;;;;;;;;;;5110146;28;20035;-78
2022/12/06 06:53:14;;;;;;;11.83;4.87;;;;;;;;;;5094184;28;20035;-77
2022/12/06 06:55:39;;;;;;;6.73;4.13;;;;;;;;;;5109662;28;20028;-76
2022/12/06 06:58:05;;;;;;;11.10;3.67;;;;;;;;;;5094452;28;20008;-76
2022/12/06 07:00:31;;;;;;;6.77;3.67;;;;;;;;;;5094627;28;20083;-78
2022/12/06 07:02:56;;;;;;;8.20;4.17;;;;;;;;;;5110723;28;20511;-73
2022/12/06 07:05:22;;;;;;;11.03;4.40;;;;;;;;;;5094968;28;20040;-77
2022/12/06 07:07:48;;;;;;;6.10;3.53;;;;;;;;;;5109932;28;20060;-77
2022/12/06 07:10:13;;;;;;;5.63;3.30;;;;;;;;;;5110584;28;20031;-75
2022/12/06 07:12:39;;;;;;;11.00;3.43;;;;;;;;;;5094618;28;20014;-76
2022/12/06 07:15:05;;;;;;;7.37;3.37;;;;;;;;;;5093939;28;20020;-78
2022/12/06 07:17:30;;;;;;;8.47;3.97;;;;;;;;;;5094038;28;20398;-77
2022/12/06 07:19:56;;;;;;;8.60;3.87;;;;;;;;;;5109640;28;20112;-77
2022/12/06 07:22:21;;;;;;;7.17;3.33;;;;;;;;;;5109476;28;20024;-79
2022/12/06 07:24:46;;;;;;;9.93;4.30;;;;;;;;;;5109804;28;20020;-73
2022/12/06 07:27:12;;;;;;;5.67;3.73;;;;;;;;;;5109505;28;20370;-79
2022/12/06 07:29:37;;;;;;;5.87;3.57;;;;;;;;;;5094271;28;20034;-77
2022/12/06 07:32:03;;;;;;;7.77;3.13;;;;;;;;;;5094612;28;20035;-79
2022/12/06 07:34:28;;;;;;;8.17;3.67;;;;;;;;;;5093413;28;20042;-78
2022/12/06 07:36:54;;;;;;;11.73;3.40;;;;;;;;;;5093560;28;20383;-79
2022/12/06 07:39:19;;;;;;;6.70;3.10;;;;;;;;;;5109036;28;20035;-74
2022/12/06 07:47:12;;;;;;;4.17;2.50;;;;;;;;;;5093738;28;20445;-79
2022/12/06 07:49:38;;;;;;;5.43;3.10;;;;;;;;;;5093980;28;20044;-77
2022/12/06 07:52:04;;;;;;;6.53;2.87;;;;;;;;;;5093801;28;20028;-77
2022/12/06 07:54:29;;;;;;;6.93;3.57;;;;;;;;;;5093454;28;20040;-77
2022/12/06 07:56:55;;;;;;;5.93;3.10;;;;;;;;;;5093714;28;20069;-77
2022/12/06 07:59:20;;;;;;;5.37;2.47;;;;;;;;;;5093853;28;20016;-76
2022/12/06 08:01:46;;;;;;;6.70;3.30;;;;;;;;;;5093137;28;20134;-76
2022/12/06 08:04:11;;;;;;;7.87;2.90;;;;;;;;;;5109020;28;20020;-75
2022/12/06 08:06:37;;;;;;;5.77;3.30;;;;;;;;;;5110087;28;20012;-72
2022/12/06 08:09:03;;;;;;;5.23;3.53;;;;;;;;;;5109239;28;20027;-77
2022/12/06 08:11:28;;;;;;;7.57;2.97;;;;;;;;;;5095937;28;20521;-77
2022/12/06 08:13:54;;;;;;;7.80;3.77;;;;;;;;;;5109053;28;20063;-77
2022/12/06 08:16:19;;;;;;;5.10;2.90;;;;;;;;;;5094564;28;20024;-76
2022/12/06 08:18:45;;;;;;;4.90;2.67;;;;;;;;;;5109431;28;20020;-78
2022/12/06 08:21:10;;;;;;;5.87;3.20;;;;;;;;;;5109494;28;20016;-75
2022/12/06 08:23:36;;;;;;;5.20;2.90;;;;;;;;;;5093428;28;20097;-76
2022/12/06 08:26:06;;;;;;;4.53;2.67;;;;;;;;;;5111012;28;20066;-76
2022/12/06 08:28:33;;;;;;;5.47;2.73;;;;;;;;;;5093982;28;20032;-78
2022/12/06 08:30:58;;;;;;;4.73;2.73;;;;;;;;;;5108848;28;20024;-78
2022/12/06 08:33:23;;;;;;;5.60;2.90;;;;;;;;;;5093346;28;20495;-77
2022/12/06 08:35:49;;;;;;;8.43;3.60;;;;;;;;;;5108971;28;20061;-77
2022/12/06 08:38:15;;;;;;;7.77;4.00;;;;;;;;;;5091959;28;20024;-78
2022/12/06 08:40:40;;;;;;;6.33;2.80;;;;;;;;;;5093430;28;20039;-77
2022/12/06 08:43:06;;;;;;;8.03;3.07;;;;;;;;;;5093290;28;20012;-79
2022/12/06 08:45:32;;;;;;;5.87;2.43;;;;;;;;;;5093728;28;20081;-78
2022/12/06 08:47:57;;;;;;;4.97;3.20;;;;;;;;;;5109828;28;20016;-78
2022/12/06 08:50:23;;;;;;;7.23;2.90;;;;;;;;;;5093695;28;20018;-79
2022/12/06 08:52:48;;;;;;;5.80;2.70;;;;;;;;;;5109091;28;20410;-78
2022/12/06 08:55:13;;;;;;;8.33;2.60;;;;;;;;;;5091845;28;20117;-79
2022/12/06 08:57:39;;;;;;;3.77;2.40;;;;;;;;;;5109105;28;20027;-78
2022/12/06 09:00:05;;;;;;;10.03;4.97;;;;;;;;;;5109381;28;20019;-75
2022/12/06 09:02:30;;;;;;;7.83;3.63;;;;;;;;;;5109090;28;20030;-79
2022/12/06 09:04:56;;;;;;;7.60;3.33;;;;;;;;;;5093211;28;20095;-63
2022/12/06 09:07:22;;;;;;;6.30;2.70;;;;;;;;;;5100663;28;20065;-78
2022/12/06 09:09:47;;;;;;;6.80;2.60;;;;;;;;;;5102483;28;20497;-75
2022/12/06 09:12:13;;;;;;;3.57;1.90;;;;;;;;;;5114749;28;20020;-78
2022/12/06 09:14:38;;;;;;;6.57;3.27;;;;;;;;;;5097646;28;20024;-81
2022/12/06 09:17:04;;;;;;;5.83;2.40;;;;;;;;;;5111961;28;20116;-78
2022/12/06 09:19:30;;;;;;;3.47;2.00;;;;;;;;;;5109475;28;20020;-75
2022/12/06 09:21:55;;;;;;;3.37;2.27;;;;;;;;;;5108763;28;20024;-78
2022/12/06 09:24:21;;;;;;;2.47;1.70;;;;;;;;;;5111136;28;20461;-79
2022/12/06 09:26:47;;;;;;;8.90;2.20;;;;;;;;;;5095834;28;20027;-79
2022/12/06 09:29:13;;;;;;;4.83;2.33;;;;;;;;;;5095208;28;20047;-80
2022/12/06 09:31:39;;;;;;;8.20;2.30;;;;;;;;;;5110971;28;20015;-79
2022/12/06 09:34:09;;;;;;;5.97;2.07;;;;;;;;;;5094856;28;20036;-79
2022/12/06 09:36:37;;;;;;;3.60;1.97;;;;;;;;;;5096223;28;20016;-79
2022/12/06 09:39:04;;;;;;;7.10;2.20;;;;;;;;;;5113249;28;20023;-78
2022/12/06 09:41:39;;;;;;;4.33;2.27;;;;;;;;;;5113022;28;20019;-80
2022/12/06 09:44:08;;;;;;;6.03;2.40;;;;;;;;;;5099413;28;20042;-77
2022/12/06 09:46:43;;;;;;;3.53;2.10;;;;;;;;;;5110549;28;20020;-77
2022/12/06 09:49:09;;;;;;;4.65;2.40;;;;;;;;;;5123264;28;20031;-78
2022/12/06 09:51:54;;;;;;;4.77;2.07;;;;;;;;;;5117384;28;20016;-79
2022/12/06 09:54:19;;;;;;;5.55;2.67;;;;;;;;;;5095156;28;20060;-79
2022/12/06 09:56:56;;;;;;;7.68;2.40;;;;;;;;;;5097013;28;20049;-81
2022/12/06 09:59:30;;;;;;;7.55;2.38;;;;;;;;;;5099475;28;20045;-81
2022/12/06 10:02:20;;;;;;;4.32;2.03;;;;;;;;;;5112933;28;20135;-80
2022/12/06 10:04:51;;;;;;;6.72;1.88;;;;;;;;;;5089431;28;20137;-77
2022/12/06 10:07:33;;;;;;;5.78;1.90;;;;;;;;;;5113871;28;20055;-81
2022/12/06 10:10:17;;;;;;;5.30;2.45;;;;;;;;;;5112820;28;20027;-79
2022/12/06 10:12:42;;;;;;;4.13;2.25;;;;;;;;;;5112414;28;20020;-78
2022/12/06 10:15:22;;;;;;;7.10;2.03;;;;;;;;;;5097818;28;20027;-79
2022/12/06 10:17:54;;;;;;;5.15;2.25;;;;;;;;;;5113603;28;20047;-80
2022/12/06 10:20:29;;;;;;;5.03;2.72;;;;;;;;;;5096970;28;20027;-78
2022/12/06 10:23:00;;;;;;;8.55;2.97;;;;;;;;;;5098208;28;20016;-79
2022/12/06 10:25:31;;;;;;;4.75;2.28;;;;;;;;;;5113045;28;20032;-77
2022/12/06 10:28:20;;;;;;;4.95;2.00;;;;;;;;;;5114925;28;20020;-78
2022/12/06 10:30:48;;;;;;;6.20;2.30;;;;;;;;;;5094523;28;20035;-78
2022/12/06 10:33:19;;;;;;;6.97;2.15;;;;;;;;;;5111558;28;20028;-79
2022/12/06 10:35:47;;;;;;;13.15;3.72;;;;;;;;;;5111479;28;20495;-78
2022/12/06 10:38:22;;;;;;;8.68;2.50;;;;;;;;;;5095439;28;20031;-78
2022/12/06 10:40:58;;;;;;;7.90;2.65;;;;;;;;;;5110677;28;20170;-77
2022/12/06 10:43:29;;;;;;;8.50;3.67;;;;;;;;;;5094000;28;20501;-76
2022/12/06 10:48:57;;;;;;;7.43;2.70;;;;;;;;;;5094566;28;20031;-77
2022/12/06 10:51:31;;;;;;;8.18;2.92;;;;;;;;;;5094677;28;20027;-78
2022/12/06 10:53:59;;;;;;;8.57;3.47;;;;;;;;;;5110749;28;20024;-78
2022/12/06 10:56:36;;;;;;;7.57;2.20;;;;;;;;;;5095298;28;20530;-79
2022/12/06 10:59:03;;;;;;;5.38;1.98;;;;;;;;;;5111151;28;20027;-77
2022/12/06 11:01:35;;;;;;;5.78;3.28;;;;;;;;;;5094587;28;20434;-77
2022/12/06 11:04:12;;;;;;;5.88;2.70;;;;;;;;;;5110266;28;20073;-79
2022/12/06 11:06:42;;;;;;;6.25;2.25;;;;;;;;;;5094308;28;20111;-77
2022/12/06 11:09:07;;;;;;;4.72;2.13;;;;;;;;;;5110467;28;20089;-77
2022/12/06 11:11:34;;;;;;;6.55;2.67;;;;;;;;;;5111512;28;20542;-77
2022/12/06 11:14:04;;;;;;;6.75;2.42;;;;;;;;;;5096132;28;20039;-77
2022/12/06 11:16:32;;;;;;;4.18;2.20;;;;;;;;;;5096652;28;20028;-77
2022/12/06 11:19:09;;;;;;;9.57;3.47;;;;;;;;;;5095834;28;20088;-76
2022/12/06 11:21:42;;;;;;;10.75;2.67;;;;;;;;;;5096257;28;20035;-77
2022/12/06 11:24:27;;;;;;;7.68;2.63;;;;;;;;;;5110909;28;20012;-76
2022/12/06 11:26:56;;;;;;;7.63;2.60;;;;;;;;;;5095298;28;20024;-76
2022/12/06 11:29:21;;;;;;;5.65;2.53;;;;;;;;;;5112208;28;20032;-77
2022/12/06 11:31:49;;;;;;;7.72;2.88;;;;;;;;;;5096320;28;20500;-74
2022/12/06 11:34:21;;;;;;;10.68;2.83;;;;;;;;;;5111369;28;20040;-77
2022/12/06 11:36:48;;;;;;;8.13;3.72;;;;;;;;;;5096151;28;20039;-75
2022/12/06 11:39:14;;;;;;;5.20;2.45;;;;;;;;;;5110702;28;20073;-74
2022/12/06 11:41:41;;;;;;;3.53;2.00;;;;;;;;;;5110911;28;20024;-74
2022/12/06 11:44:07;;;;;;;4.22;2.47;;;;;;;;;;5111911;28;20020;-77
2022/12/06 11:46:33;;;;;;;7.40;3.13;;;;;;;;;;5095470;28;20016;-74
2022/12/06 11:49:03;;;;;;;6.28;2.65;;;;;;;;;;5109946;28;20020;-74
2022/12/06 11:51:28;;;;;;;12.70;4.47;;;;;;;;;;5094996;28;20016;-73
2022/12/06 11:53:58;;;;;;;8.57;4.15;;;;;;;;;;5097709;28;20028;-75
2022/12/06 11:56:39;;;;;;;12.55;6.40;;;;;;;;;;5122871;28;20082;-76
2022/12/06 11:59:07;;;;;;;7.70;2.33;;;;;;;;;;5094563;28;20035;-75
2022/12/06 12:01:37;;;;;;;7.18;2.60;;;;;;;;;;5094673;28;20071;-76
2022/12/06 12:04:22;;;;;;;3.05;1.70;;;;;;;;;;5094054;28;20100;-76
2022/12/06 12:06:48;;;;;;;5.40;2.55;;;;;;;;;;5109574;28;20487;-76
2022/12/06 12:09:18;;;;;;;3.15;1.98;;;;;;;;;;5109025;28;20403;-76
2022/12/06 12:12:00;;;;;;;7.68;2.65;;;;;;;;;;5108825;28;20472;-77
2022/12/06 12:14:26;;;;;;;8.25;2.15;;;;;;;;;;5092788;28;20035;-77
2022/12/06 12:16:57;;;;;;;6.95;2.58;;;;;;;;;;5109215;28;20027;-74
2022/12/06 12:19:26;;;;;;;4.93;2.50;;;;;;;;;;5093291;28;20388;-76
2022/12/06 12:21:52;;;;;;;5.03;2.20;;;;;;;;;;5093141;28;20016;-74
2022/12/06 12:24:36;;;;;;;8.20;2.73;;;;;;;;;;5108793;28;20056;-77
2022/12/06 12:27:20;;;;;;;9.53;5.97;;;;;;;;;;5108551;28;20028;-76
2022/12/06 12:29:46;;;;;;;6.97;3.37;;;;;;;;;;5092092;28;20031;-75
2022/12/06 12:32:11;;;;;;;6.03;2.43;;;;;;;;;;5108348;28;20032;-75
2022/12/06 12:34:37;;;;;;;4.37;2.00;;;;;;;;;;5108701;28;20478;-75
2022/12/06 12:37:03;;;;;;;3.42;2.10;;;;;;;;;;5092879;28;20020;-75
2022/12/06 12:39:33;;;;;;;12.93;4.50;;;;;;;;;;5093208;28;20020;-72
2022/12/06 12:41:59;;;;;;;5.53;2.40;;;;;;;;;;5108358;28;20016;-75
2022/12/06 12:44:30;;;;;;;8.27;2.38;;;;;;;;;;5108557;28;20358;-74
2022/12/06 12:46:57;;;;;;;4.23;2.20;;;;;;;;;;5107890;28;20016;-65
2022/12/06 12:49:35;;;;;;;6.90;1.83;;;;;;;;;;5107985;28;20121;-76
2022/12/06 12:52:02;;;;;;;5.20;2.23;;;;;;;;;;5092588;28;20055;-77
2022/12/06 12:54:32;;;;;;;4.30;2.00;;;;;;;;;;5107781;28;20042;-74
2022/12/06 12:56:58;;;;;;;8.47;3.00;;;;;;;;;;5108136;28;20016;-75
2022/12/06 12:59:25;;;;;;;5.87;2.60;;;;;;;;;;5108268;28;20047;-73
2022/12/06 13:01:53;;;;;;;5.00;2.20;;;;;;;;;;5092779;28;20071;-76
2022/12/06 13:04:18;;;;;;;5.17;2.37;;;;;;;;;;5107847;28;20020;-78
2022/12/06 13:06:51;;;;;;;8.90;3.07;;;;;;;;;;5092828;28;20118;-74
2022/12/06 13:09:25;;;;;;;10.50;2.50;;;;;;;;;;5119775;28;20028;-75
2022/12/06 13:11:53;;;;;;;6.20;2.30;;;;;;;;;;5115234;28;20083;-75
2022/12/06 13:14:20;;;;;;;4.67;2.37;;;;;;;;;;5113514;28;20036;-76
2022/12/06 13:16:48;;;;;;;5.67;2.40;;;;;;;;;;5100593;28;20070;-77
2022/12/06 13:19:15;;;;;;;8.47;2.70;;;;;;;;;;5092293;28;20363;-77
2022/12/06 13:21:44;;;;;;;5.05;2.03;;;;;;;;;;5108066;28;20024;-77
2022/12/06 13:24:09;;;;;;;6.70;2.10;;;;;;;;;;5107510;28;20123;-77
2022/12/06 13:27:01;;;;;;;7.75;2.30;;;;;;;;;;5108307;28;20658;-76
2022/12/06 13:29:35;;;;;;;9.43;2.55;;;;;;;;;;5091291;28;20028;-77
2022/12/06 13:32:07;;;;;;;7.73;2.77;;;;;;;;;;5092548;28;20016;-75
2022/12/06 13:34:38;;;;;;;6.43;2.83;;;;;;;;;;5092672;28;20030;-76
2022/12/06 13:37:23;;;;;;;9.47;2.90;;;;;;;;;;5092786;28;20028;-75
2022/12/06 13:39:49;;;;;;;8.35;2.75;;;;;;;;;;5107781;28;20674;-76
2022/12/06 13:42:22;;;;;;;7.77;2.40;;;;;;;;;;5096827;28;20028;-77
2022/12/06 13:44:50;;;;;;;7.93;2.23;;;;;;;;;;5096910;28;20062;-77
2022/12/06 13:47:25;;;;;;;18.40;8.83;;;;;;;;;;5111408;28;20023;-75
2022/12/06 13:49:51;;;;;;;8.13;3.10;;;;;;;;;;5096044;28;20035;-74
2022/12/06 13:52:34;;;;;;;9.63;2.40;;;;;;;;;;5095909;28;20103;-75
2022/12/06 13:55:20;;;;;;;6.43;2.30;;;;;;;;;;5111689;28;20038;-75
2022/12/06 13:57:45;;;;;;;6.88;2.78;;;;;;;;;;5096192;28;20031;-77
2022/12/06 14:00:29;;;;;;;4.73;2.53;;;;;;;;;;5095515;28;20454;-76
2022/12/06 14:02:54;;;;;;;6.03;2.43;;;;;;;;;;5095926;28;20104;-77
2022/12/06 14:05:38;;;;;;;8.00;3.17;;;;;;;;;;5095258;28;20476;-77
2022/12/06 14:08:04;;;;;;;10.17;2.63;;;;;;;;;;5095904;28;20040;-76
2022/12/06 14:10:29;;;;;;;3.37;2.03;;;;;;;;;;5111712;28;20020;-75
2022/12/06 14:12:59;;;;;;;7.77;2.03;;;;;;;;;;5111167;28;20542;-72
2022/12/06 14:15:24;;;;;;;7.63;2.00;;;;;;;;;;5110268;28;20020;-76
2022/12/06 14:17:50;;;;;;;14.33;7.00;;;;;;;;;;5095542;28;20157;-75
2022/12/06 14:20:20;;;;;;;7.30;2.70;;;;;;;;;;5110882;28;20069;-76
2022/12/06 14:22:47;;;;;;;13.07;7.23;;;;;;;;;;5094968;28;20031;-74
2022/12/06 14:25:15;;;;;;;5.80;2.40;;;;;;;;;;5110818;28;20027;-77
2022/12/06 14:27:45;;;;;;;6.67;1.97;;;;;;;;;;5095401;28;20148;-77
2022/12/06 14:30:15;;;;;;;7.83;2.03;;;;;;;;;;5110138;28;20463;-76
2022/12/06 14:32:45;;;;;;;5.93;2.03;;;;;;;;;;5095048;28;20105;-74
2022/12/06 14:35:13;;;;;;;9.03;4.27;;;;;;;;;;5095092;28;20488;-76
2022/12/06 14:37:44;;;;;;;5.97;2.97;;;;;;;;;;5094745;28;20389;-75
2022/12/06 14:40:19;;;;;;;7.93;2.00;;;;;;;;;;5111069;28;20090;-75
2022/12/06 14:43:02;;;;;;;;;;;;;;;;;;5096036;28;20020;-74
2022/12/06 14:45:32;;;;;;;3.10;1.63;;;;;;;;;;5094227;28;19904;-73
2022/12/06 14:47:58;;;;;;;6.57;1.83;;;;;;;;;;5110325;28;20028;-76
2022/12/06 14:50:27;;;;;;;7.77;2.73;;;;;;;;;;5095263;28;20020;-75
2022/12/06 14:52:57;;;;;;;6.97;1.80;;;;;;;;;;5093873;28;20016;-77
2022/12/06 14:55:23;;;;;;;5.23;1.70;;;;;;;;;;5111319;28;20020;-74
2022/12/06 14:57:53;;;;;;;10.53;4.90;;;;;;;;;;5094916;28;20480;-78
2022/12/06 15:00:20;;;;;;;7.70;1.97;;;;;;;;;;5094551;28;20044;-78
2022/12/06 15:02:59;;;;;;;4.60;1.40;;;;;;;;;;5111148;28;20059;-76
2022/12/06 15:05:32;;;;;;;8.87;2.17;;;;;;;;;;5095201;28;20047;-78
2022/12/06 15:07:57;;;;;;;11.40;2.40;;;;;;;;;;5094968;28;20023;-74
2022/12/06 15:10:24;;;;;;;4.83;1.70;;;;;;;;;;5110269;28;20031;-76
2022/12/06 15:12:56;;;;;;;11.70;2.40;;;;;;;;;;5094387;28;20065;-77
2022/12/06 15:15:32;;;;;;;7.83;2.03;;;;;;;;;;5094045;28;20069;-77